createdAt,value
2022-10-05T00:01:21.664Z,99217.53
2022-10-05T00:03:49.759Z,99221.31
2022-10-05T00:06:17.721Z,99222.38
2022-10-05T00:08:45.487Z,99219.56
2022-10-05T00:11:14.676Z,99214.34
2022-10-05T00:13:43.846Z,99215.09
2022-10-05T00:16:16.800Z,99212.25
2022-10-05T00:18:48.398Z,99216.84
2022-10-05T00:21:21.998Z,99217.50
2022-10-05T00:23:50.387Z,99218.66
2022-10-05T00:26:22.618Z,99209.56
2022-10-05T00:28:54.618Z,99213.56
2022-10-05T00:31:24.804Z,99206.47
2022-10-05T00:33:54.853Z,99204.63
2022-10-05T00:36:22.563Z,99212.09
2022-10-05T00:38:51.089Z,99200.88
2022-10-05T00:41:24.726Z,99205.34
2022-10-05T00:44:21.319Z,99212.88
2022-10-05T00:46:57.802Z,99205.09
2022-10-05T00:49:41.753Z,99207.41
2022-10-05T00:52:22.061Z,99211.06
2022-10-05T00:54:57.418Z,99200.81
2022-10-05T00:57:35.547Z,99199.53
2022-10-05T01:00:10.007Z,99203.16
2022-10-05T01:02:51.042Z,99206.75
2022-10-05T01:05:30.873Z,99205.13
2022-10-05T01:08:08.459Z,99212.53
2022-10-05T01:10:45.855Z,99207.03
2022-10-05T01:13:25.494Z,99206.38
2022-10-05T01:16:04.158Z,99197.44
2022-10-05T01:18:39.719Z,99197.59
2022-10-05T01:21:14.516Z,99200.81
2022-10-05T01:24:23.930Z,99196.88
2022-10-05T01:27:17.385Z,99198.66
2022-10-05T01:29:55.561Z,99199.59
2022-10-05T01:32:29.848Z,99194.16
2022-10-05T01:35:07.014Z,99201.44
2022-10-05T01:37:43.046Z,99200.34
2022-10-05T01:40:19.376Z,99199.84
2022-10-05T01:43:00.146Z,99196.09
2022-10-05T01:45:39.473Z,99190.03
2022-10-05T01:48:14.259Z,99186.63
2022-10-05T01:50:51.237Z,99190.59
2022-10-05T01:53:35.924Z,99187.19
2022-10-05T01:56:15.445Z,99181.09
2022-10-05T01:58:53.094Z,99168.88
2022-10-05T02:01:31.860Z,99183.31
2022-10-05T02:04:06.937Z,99164.34
2022-10-05T02:06:41.537Z,99176.72
2022-10-05T02:09:16.220Z,99180.56
2022-10-05T02:11:48.331Z,99175.50
2022-10-05T02:14:20.282Z,99174.00
2022-10-05T02:16:52.375Z,99176.91
2022-10-05T02:19:24.620Z,99169.38
2022-10-05T02:21:57.294Z,99168.66
2022-10-05T02:24:31.121Z,99160.03
2022-10-05T02:26:59.887Z,99157.91
2022-10-05T02:29:32.905Z,99163.09
2022-10-05T02:32:06.523Z,99158.72
2022-10-05T02:34:39.190Z,99153.47
2022-10-05T02:37:30.903Z,99146.88
2022-10-05T02:40:17.258Z,99152.22
2022-10-05T02:42:56.751Z,99148.81
2022-10-05T02:45:38.513Z,99154.72
2022-10-05T02:48:16.126Z,99161.91
2022-10-05T02:50:52.579Z,99164.97
2022-10-05T02:53:26.716Z,99166.13
2022-10-05T02:56:06.257Z,99172.41
2022-10-05T02:58:43.041Z,99171.88
2022-10-05T03:01:18.038Z,99170.06
2022-10-05T03:04:00.154Z,99175.16
2022-10-05T03:06:39.059Z,99181.91
2022-10-05T03:09:08.743Z,99177.03
2022-10-05T03:11:45.478Z,99171.03
2022-10-05T03:14:19.920Z,99169.59
2022-10-05T03:16:58.129Z,99172.63
2022-10-05T03:20:04.043Z,99169.84
2022-10-05T03:22:45.202Z,99167.53
2022-10-05T03:25:31.650Z,99164.75
2022-10-05T03:28:08.135Z,99164.81
2022-10-05T03:30:45.192Z,99155.72
2022-10-05T03:33:22.737Z,99151.00
2022-10-05T03:35:59.829Z,99149.81
2022-10-05T03:38:40.389Z,99147.06
2022-10-05T03:41:16.363Z,99143.97
2022-10-05T03:43:59.105Z,99137.13
2022-10-05T03:46:40.014Z,99136.09
2022-10-05T03:49:15.746Z,99142.22
2022-10-05T03:51:51.233Z,99134.31
2022-10-05T03:54:25.848Z,99124.31
2022-10-05T03:56:56.795Z,99117.91
2022-10-05T03:59:32.596Z,99125.72
2022-10-05T04:02:06.477Z,99128.19
2022-10-05T04:04:38.422Z,99121.19
2022-10-05T04:07:13.013Z,99128.09
2022-10-05T04:09:43.961Z,99126.75
2022-10-05T04:12:24.423Z,99118.63
2022-10-05T04:14:58.456Z,99119.63
2022-10-05T04:17:34.227Z,99123.38
2022-10-05T04:20:07.093Z,99130.66
2022-10-05T04:22:40.317Z,99127.09
2022-10-05T04:25:17.794Z,99120.22
2022-10-05T04:27:52.027Z,99117.28
2022-10-05T04:30:22.142Z,99121.41
2022-10-05T04:32:54.869Z,99119.16
2022-10-05T04:35:50.041Z,99121.31
2022-10-05T04:38:29.677Z,99113.53
2022-10-05T04:41:15.892Z,99114.88
2022-10-05T04:43:54.796Z,99108.56
2022-10-05T04:46:37.609Z,99119.91
2022-10-05T04:49:18.523Z,99121.09
2022-10-05T04:52:01.029Z,99125.78
2022-10-05T04:54:44.525Z,99124.25
2022-10-05T04:57:18.015Z,99121.88
2022-10-05T05:00:04.651Z,99133.13
2022-10-05T05:02:48.867Z,99140.50
2022-10-05T05:06:05.003Z,99154.38
2022-10-05T05:08:47.160Z,99153.72
2022-10-05T05:11:28.042Z,99155.91
2022-10-05T05:14:17.351Z,99147.91
2022-10-05T05:16:50.536Z,99154.03
2022-10-05T05:19:37.422Z,99156.91
2022-10-05T05:22:09.462Z,99153.84
2022-10-05T05:24:55.685Z,99161.47
2022-10-05T05:27:43.189Z,99164.13
2022-10-05T05:30:22.262Z,99171.09
2022-10-05T05:33:16.998Z,99165.91
2022-10-05T05:36:22.872Z,99171.97
2022-10-05T05:39:02.583Z,99169.66
2022-10-05T05:41:38.027Z,99177.84
2022-10-05T05:44:18.161Z,99188.13
2022-10-05T05:47:10.012Z,99185.22
2022-10-05T05:49:55.234Z,99187.00
2022-10-05T05:52:32.068Z,99182.47
2022-10-05T05:55:06.028Z,99188.50
2022-10-05T05:57:40.039Z,99189.16
2022-10-05T06:00:21.592Z,99191.59
2022-10-05T06:03:02.899Z,99194.72
2022-10-05T06:05:35.258Z,99198.69
2022-10-05T06:08:11.871Z,99206.41
2022-10-05T06:10:46.414Z,99205.75
2022-10-05T06:13:20.524Z,99205.41
2022-10-05T06:15:55.162Z,99210.28
2022-10-05T06:18:24.080Z,99216.19
2022-10-05T06:21:00.829Z,99215.78
2022-10-05T06:23:40.868Z,99227.56
2022-10-05T06:26:31.934Z,99223.19
2022-10-05T06:29:04.048Z,99230.28
2022-10-05T06:31:58.890Z,99230.28
2022-10-05T06:34:46.344Z,99237.22
2022-10-05T06:37:25.990Z,99237.13
2022-10-05T06:40:09.224Z,99238.38
2022-10-05T06:42:48.354Z,99232.69
2022-10-05T06:45:54.841Z,99238.56
2022-10-05T06:49:06.527Z,99238.84
2022-10-05T06:52:00.080Z,99243.94
2022-10-05T06:54:46.803Z,99249.38
2022-10-05T06:57:36.652Z,99242.31
2022-10-05T07:00:08.110Z,99240.38
2022-10-05T07:02:43.999Z,99231.75
2022-10-05T07:05:44.021Z,99240.03
2022-10-05T07:08:19.917Z,99240.88
2022-10-05T07:11:00.334Z,99241.78
2022-10-05T07:13:56.861Z,99245.56
2022-10-05T07:16:35.813Z,99244.91
2022-10-05T07:19:14.735Z,99240.94
2022-10-05T07:21:52.478Z,99245.53
2022-10-05T07:24:31.536Z,99240.00
2022-10-05T07:27:11.207Z,99244.69
2022-10-05T07:29:48.466Z,99240.75
2022-10-05T07:32:29.047Z,99244.94
2022-10-05T07:35:09.935Z,99238.25
2022-10-05T07:37:57.266Z,99246.69
2022-10-05T07:40:34.369Z,99243.72
2022-10-05T07:43:14.852Z,99247.56
2022-10-05T07:45:49.101Z,99247.00
2022-10-05T07:48:21.829Z,99248.09
2022-10-05T07:50:59.780Z,99258.25
2022-10-05T07:53:36.889Z,99257.41
2022-10-05T07:56:10.671Z,99257.38
2022-10-05T07:58:44.172Z,99259.50
2022-10-05T08:01:19.250Z,99261.09
2022-10-05T08:03:57.967Z,99254.50
2022-10-05T08:06:45.272Z,99249.50
2022-10-05T08:09:27.165Z,99253.53
2022-10-05T08:12:03.557Z,99253.56
2022-10-05T08:14:39.761Z,99257.91
2022-10-05T08:17:21.681Z,99250.47
2022-10-05T08:20:00.226Z,99242.03
2022-10-05T08:22:35.684Z,99247.56
2022-10-05T08:25:10.284Z,99248.41
2022-10-05T08:27:49.143Z,99239.91
2022-10-05T08:30:17.497Z,99250.56
2022-10-05T08:32:52.298Z,99244.31
2022-10-05T08:35:28.048Z,99236.97
2022-10-05T08:37:56.982Z,99237.91
2022-10-05T08:40:51.582Z,99240.97
2022-10-05T08:43:35.965Z,99237.28
2022-10-05T08:46:26.844Z,99229.72
2022-10-05T08:49:34.905Z,99217.41
2022-10-05T08:52:29.038Z,99220.44
2022-10-05T08:55:30.498Z,99234.03
2022-10-05T08:58:38.456Z,99231.38
2022-10-05T09:01:15.636Z,99219.56
2022-10-05T09:04:15.811Z,99217.56
2022-10-05T09:06:58.424Z,99214.78
2022-10-05T09:10:01.547Z,99218.56
2022-10-05T09:12:52.948Z,99219.75
2022-10-05T09:15:54.170Z,99212.22
2022-10-05T09:18:57.070Z,99210.94
2022-10-05T09:21:41.809Z,99205.19
2022-10-05T09:24:27.044Z,99214.13
2022-10-05T09:27:08.760Z,99210.84
2022-10-05T09:30:00.913Z,99204.66
2022-10-05T09:33:10.362Z,99193.81
2022-10-05T09:36:02.867Z,99198.94
2022-10-05T09:38:44.656Z,99187.22
2022-10-05T09:41:47.838Z,99199.44
2022-10-05T09:44:53.914Z,99190.19
2022-10-05T09:47:52.139Z,99183.78
2022-10-05T09:50:44.894Z,99180.94
2022-10-05T09:53:29.914Z,99179.34
2022-10-05T09:56:21.198Z,99175.75
2022-10-05T09:59:11.775Z,99168.34
2022-10-05T10:01:58.703Z,99164.94
2022-10-05T10:04:49.781Z,99164.66
2022-10-05T10:07:46.489Z,99150.47
2022-10-05T10:10:42.145Z,99155.50
2022-10-05T10:13:25.615Z,99154.56
2022-10-05T10:16:16.341Z,99152.19
2022-10-05T10:19:06.257Z,99142.72
2022-10-05T10:22:06.382Z,99144.41
2022-10-05T10:24:57.617Z,99135.47
2022-10-05T10:27:41.961Z,99136.78
2022-10-05T10:30:36.471Z,99133.34
2022-10-05T10:33:44.890Z,99135.69
2022-10-05T10:36:18.836Z,99129.59
2022-10-05T10:38:59.388Z,99130.91
2022-10-05T10:42:01.975Z,99122.00
2022-10-05T10:45:06.407Z,99122.44
2022-10-05T10:47:52.840Z,99115.69
2022-10-05T10:50:55.871Z,99110.59
2022-10-05T10:53:56.101Z,99102.41
2022-10-05T10:56:51.822Z,99100.13
2022-10-05T10:59:52.436Z,99091.09
2022-10-05T11:02:56.799Z,99091.66
2022-10-05T11:05:32.634Z,99092.47
2022-10-05T11:08:20.503Z,99083.56
2022-10-05T11:11:10.782Z,99075.84
2022-10-05T11:14:02.570Z,99077.66
2022-10-05T11:17:05.077Z,99070.56
2022-10-05T11:20:03.580Z,99074.22
2022-10-05T11:22:57.203Z,99060.78
2022-10-05T11:25:51.654Z,99059.84
2022-10-05T11:29:07.052Z,99053.19
2022-10-05T11:31:59.873Z,99050.53
2022-10-05T11:35:19.754Z,99049.72
2022-10-05T11:38:04.721Z,99044.75
2022-10-05T11:41:06.398Z,99036.25
2022-10-05T11:44:07.882Z,99035.97
2022-10-05T11:46:49.212Z,99035.22
2022-10-05T11:49:28.918Z,99033.69
2022-10-05T11:52:07.143Z,99026.22
2022-10-05T11:55:10.986Z,99030.06
2022-10-05T11:57:50.421Z,99021.81
2022-10-05T12:00:20.843Z,99015.41
2022-10-05T12:03:00.750Z,99010.44
2022-10-05T12:05:39.091Z,99007.41
2022-10-05T12:08:23.107Z,99019.47
2022-10-05T12:11:03.463Z,99006.66
2022-10-05T12:13:41.076Z,99009.97
2022-10-05T12:16:16.772Z,99011.84
2022-10-05T12:18:55.987Z,99003.00
2022-10-05T12:21:32.728Z,99011.22
2022-10-05T12:24:05.860Z,99003.41
2022-10-05T12:26:37.759Z,99009.66
2022-10-05T12:29:14.192Z,99000.06
2022-10-05T12:31:51.460Z,98998.41
2022-10-05T12:34:35.718Z,98990.22
2022-10-05T12:37:11.187Z,98989.66
2022-10-05T12:39:49.436Z,98988.59
2022-10-05T12:42:29.655Z,98986.72
2022-10-05T12:45:12.501Z,98983.78
2022-10-05T12:47:55.227Z,98976.69
2022-10-05T12:50:29.463Z,98982.34
2022-10-05T12:53:18.770Z,98980.88
2022-10-05T12:55:54.463Z,98976.28
2022-10-05T12:58:34.192Z,98963.75
2022-10-05T13:01:10.175Z,98963.72
2022-10-05T13:03:41.049Z,98960.41
2022-10-05T13:06:24.129Z,98961.66
2022-10-05T13:08:57.392Z,98958.31
2022-10-05T13:11:32.433Z,98964.56
2022-10-05T13:14:12.438Z,98957.06
2022-10-05T13:16:49.204Z,98959.59
2022-10-05T13:19:35.411Z,98955.81
2022-10-05T13:22:30.702Z,98946.66
2022-10-05T13:25:17.296Z,98955.66
2022-10-05T13:27:49.547Z,98950.44
2022-10-05T13:30:19.893Z,98952.53
2022-10-05T13:32:53.434Z,98951.19
2022-10-05T13:35:30.661Z,98948.28
2022-10-05T13:38:12.140Z,98953.94
2022-10-05T13:40:50.560Z,98949.97
2022-10-05T13:43:26.957Z,98954.75
2022-10-05T13:45:57.385Z,98952.47
2022-10-05T13:48:46.388Z,98958.63
2022-10-05T13:51:21.551Z,98954.91
2022-10-05T13:54:01.959Z,98948.91
2022-10-05T13:56:32.002Z,98954.28
2022-10-05T13:59:07.823Z,98958.69
2022-10-05T14:01:42.758Z,98959.47
2022-10-05T14:04:18.061Z,98957.22
2022-10-05T14:06:49.376Z,98950.47
2022-10-05T14:09:31.256Z,98958.25
2022-10-05T14:12:14.895Z,98962.00
2022-10-05T14:14:48.808Z,98959.75
2022-10-05T14:17:32.813Z,98963.69
2022-10-05T14:20:03.357Z,98959.31
2022-10-05T14:22:31.170Z,98958.53
2022-10-05T14:25:17.085Z,98962.28
2022-10-05T14:27:51.871Z,98962.16
2022-10-05T14:30:23.536Z,98964.47
2022-10-05T14:32:57.068Z,98966.88
2022-10-05T14:35:26.538Z,98966.03
2022-10-05T14:37:59.649Z,98966.66
2022-10-05T14:40:34.053Z,98974.38
2022-10-05T14:43:18.439Z,98961.78
2022-10-05T14:46:02.611Z,98960.53
2022-10-05T14:48:41.806Z,98956.69
2022-10-05T14:51:12.220Z,98960.16
2022-10-05T14:53:43.261Z,98959.78
2022-10-05T14:56:39.245Z,98962.97
2022-10-05T14:59:30.390Z,98959.06
2022-10-05T15:02:23.147Z,98962.03
2022-10-05T15:04:57.513Z,98960.06
2022-10-05T15:07:28.363Z,98953.41
2022-10-05T15:10:08.394Z,98953.22
2022-10-05T15:12:48.428Z,98947.84
2022-10-05T15:15:28.223Z,98947.03
2022-10-05T15:18:01.230Z,98954.56
2022-10-05T15:20:36.932Z,98942.19
2022-10-05T15:23:24.479Z,98953.09
2022-10-05T15:26:02.749Z,98954.94
2022-10-05T15:28:39.071Z,98956.41
2022-10-05T15:31:17.449Z,98946.19
2022-10-05T15:33:54.635Z,98946.13
2022-10-05T15:36:27.751Z,98945.50
2022-10-05T15:39:04.959Z,98948.75
2022-10-05T15:41:52.819Z,98944.53
2022-10-05T15:44:36.551Z,98945.19
2022-10-05T15:47:08.390Z,98948.84
2022-10-05T15:49:42.951Z,98951.31
2022-10-05T15:52:18.816Z,98953.91
2022-10-05T15:55:21.114Z,98958.97
2022-10-05T15:57:58.706Z,98962.16
2022-10-05T16:00:32.173Z,98947.56
2022-10-05T16:03:15.975Z,98955.66
2022-10-05T16:06:06.421Z,98965.50
2022-10-05T16:08:55.058Z,98970.66
2022-10-05T16:11:33.697Z,98964.72
2022-10-05T16:14:13.924Z,98974.50
2022-10-05T16:16:53.201Z,98976.41
2022-10-05T16:19:29.495Z,98973.63
2022-10-05T16:22:07.545Z,98979.09
2022-10-05T16:24:58.291Z,98981.78
2022-10-05T16:27:35.243Z,98986.47
2022-10-05T16:30:10.570Z,98988.03
2022-10-05T16:32:46.742Z,98986.81
2022-10-05T16:35:25.426Z,98997.38
2022-10-05T16:38:01.689Z,98994.84
2022-10-05T16:40:38.801Z,98992.53
2022-10-05T16:43:21.612Z,99002.31
2022-10-05T16:46:03.751Z,98993.50
2022-10-05T16:48:41.278Z,99003.16
2022-10-05T16:51:21.393Z,99003.88
2022-10-05T16:53:59.941Z,99005.94
2022-10-05T16:56:34.187Z,99007.47
2022-10-05T16:59:18.465Z,99015.78
2022-10-05T17:02:00.676Z,99012.03
2022-10-05T17:04:42.197Z,99012.75
2022-10-05T17:07:26.302Z,99024.22
2022-10-05T17:10:12.119Z,99024.41
2022-10-05T17:12:53.133Z,99022.75
2022-10-05T17:15:33.162Z,99021.06
2022-10-05T17:18:27.304Z,99032.63
2022-10-05T17:21:07.765Z,99033.59
2022-10-05T17:23:55.117Z,99038.28
2022-10-05T17:26:55.518Z,99047.88
2022-10-05T17:29:30.108Z,99037.66
2022-10-05T17:32:12.789Z,99042.34
2022-10-05T17:35:18.188Z,99049.38
2022-10-05T17:41:06.349Z,99054.06
2022-10-05T17:43:34.942Z,99058.41
2022-10-05T17:46:04.095Z,99067.16
2022-10-05T17:48:44.115Z,99062.75
2022-10-05T17:51:56.423Z,99068.25
2022-10-05T17:54:43.335Z,99073.59
2022-10-05T17:57:21.026Z,99072.59
2022-10-05T17:59:59.265Z,99079.63
2022-10-05T18:02:42.717Z,99078.38
2022-10-05T18:05:23.168Z,99074.94
2022-10-05T18:08:26.837Z,99087.16
2022-10-05T18:11:17.004Z,99090.63
2022-10-05T18:13:49.943Z,99093.88
2022-10-05T18:16:50.816Z,99096.25
2022-10-05T18:19:23.870Z,99094.63
2022-10-05T18:22:04.411Z,99101.72
2022-10-05T18:24:53.137Z,99104.84
2022-10-05T18:27:43.212Z,99105.28
2022-10-05T18:30:22.496Z,99111.84
2022-10-05T18:33:29.872Z,99107.16
2022-10-05T18:36:06.935Z,99110.63
2022-10-05T18:39:02.359Z,99121.75
2022-10-05T18:41:48.137Z,99113.41
2022-10-05T18:44:50.189Z,99115.53
2022-10-05T18:47:34.606Z,99123.81
2022-10-05T18:50:20.919Z,99121.47
2022-10-05T18:53:06.756Z,99122.38
2022-10-05T18:55:41.475Z,99122.28
2022-10-05T18:58:18.012Z,99130.66
2022-10-05T19:01:15.035Z,99135.75
2022-10-05T19:03:56.625Z,99142.50
2022-10-05T19:06:30.956Z,99134.81
2022-10-05T19:09:09.940Z,99146.75
2022-10-05T19:11:44.423Z,99152.94
2022-10-05T19:14:18.620Z,99159.91
2022-10-05T19:17:09.333Z,99161.06
2022-10-05T19:19:51.982Z,99170.19
2022-10-05T19:22:32.945Z,99172.31
2022-10-05T19:25:20.487Z,99175.25
2022-10-05T19:28:00.428Z,99180.31
2022-10-05T19:30:42.435Z,99185.22
2022-10-05T19:33:26.988Z,99184.78
2022-10-05T19:36:09.215Z,99195.88
2022-10-05T19:38:45.845Z,99202.75
2022-10-05T19:41:17.149Z,99205.38
2022-10-05T19:44:09.088Z,99206.91
2022-10-05T19:46:50.861Z,99215.75
2022-10-05T19:49:43.485Z,99212.22
2022-10-05T19:52:21.009Z,99213.34
2022-10-05T19:55:01.769Z,99212.34
2022-10-05T19:57:29.687Z,99212.78
2022-10-05T19:59:59.489Z,99229.81
2022-10-05T20:02:28.887Z,99231.78
2022-10-05T20:05:07.302Z,99234.38
2022-10-05T20:07:36.970Z,99249.94
2022-10-05T20:10:28.191Z,99250.00
2022-10-05T20:12:58.064Z,99258.19
2022-10-05T20:15:45.434Z,99260.72
2022-10-05T20:19:05.774Z,99262.16
2022-10-05T20:21:48.770Z,99263.72
2022-10-05T20:24:20.287Z,99270.66
2022-10-05T20:27:02.151Z,99275.44
2022-10-05T20:29:31.300Z,99277.84
2022-10-05T20:31:59.803Z,99282.09
2022-10-05T20:34:27.701Z,99285.56
2022-10-05T20:36:55.583Z,99284.66
2022-10-05T20:39:24.756Z,99290.06
2022-10-05T20:41:52.480Z,99292.75
2022-10-05T20:44:20.264Z,99288.63
2022-10-05T20:46:48.102Z,99296.63
2022-10-05T20:49:17.935Z,99299.72
2022-10-05T20:51:45.929Z,99302.97
2022-10-05T20:54:18.057Z,99308.13
2022-10-05T20:56:47.200Z,99312.19
2022-10-05T20:59:15.456Z,99314.16
2022-10-05T21:01:45.313Z,99315.81
2022-10-05T21:04:13.053Z,99321.88
2022-10-05T21:06:41.084Z,99331.66
2022-10-05T21:09:11.230Z,99332.41
2022-10-05T21:11:40.046Z,99330.31
2022-10-05T21:14:09.406Z,99327.59
2022-10-05T21:16:38.047Z,99325.22
2022-10-05T21:23:24.497Z,99344.84
2022-10-05T21:25:53.045Z,99335.94
2022-10-05T21:28:22.070Z,99342.84
2022-10-05T21:30:51.320Z,99334.03
2022-10-05T21:33:19.151Z,99345.84
2022-10-05T21:35:46.920Z,99347.09
2022-10-05T21:38:16.811Z,99355.66
2022-10-05T21:40:45.498Z,99354.88
2022-10-05T21:43:14.244Z,99359.34
2022-10-05T21:45:43.412Z,99354.06
2022-10-05T21:48:14.000Z,99360.88
2022-10-05T21:50:42.263Z,99362.41
2022-10-05T21:53:14.107Z,99370.00
2022-10-05T21:55:45.172Z,99364.47
2022-10-05T21:58:14.905Z,99364.13
2022-10-05T22:00:42.971Z,99368.88
2022-10-05T22:03:12.127Z,99368.09
2022-10-05T22:05:40.102Z,99373.41
2022-10-05T22:08:08.100Z,99378.03
2022-10-05T22:10:35.976Z,99372.59
2022-10-05T22:13:05.275Z,99370.03
2022-10-05T22:15:33.212Z,99371.00
2022-10-05T22:18:01.092Z,99377.28
2022-10-05T22:20:31.864Z,99376.41
2022-10-05T22:22:59.731Z,99379.50
2022-10-05T22:25:27.559Z,99381.66
2022-10-05T22:27:55.440Z,99385.88
2022-10-05T22:30:23.273Z,99388.41
2022-10-05T22:32:51.129Z,99386.94
2022-10-05T22:35:18.961Z,99392.53
2022-10-05T22:37:48.067Z,99392.59
2022-10-05T22:40:15.865Z,99390.56
2022-10-05T22:42:43.668Z,99394.13
2022-10-05T22:45:11.561Z,99396.19
2022-10-05T22:47:39.369Z,99394.97
2022-10-05T22:50:09.081Z,99398.50
2022-10-05T22:52:37.175Z,99396.34
2022-10-05T22:55:07.430Z,99398.94
2022-10-05T22:57:39.048Z,99402.81
2022-10-05T23:00:08.620Z,99398.59
2022-10-05T23:02:37.462Z,99399.31
2022-10-05T23:05:05.964Z,99404.31
2022-10-05T23:07:37.587Z,99398.25
2022-10-05T23:10:08.986Z,99411.41
2022-10-05T23:12:36.886Z,99403.19
2022-10-05T23:15:06.017Z,99405.47
2022-10-05T23:17:35.753Z,99409.94
2022-10-05T23:20:05.288Z,99421.44
2022-10-05T23:22:36.889Z,99412.53
2022-10-05T23:25:08.084Z,99429.19
2022-10-05T23:27:39.784Z,99420.91
2022-10-05T23:30:09.904Z,99420.88
2022-10-05T23:32:41.967Z,99426.78
2022-10-05T23:35:13.667Z,99423.97
2022-10-05T23:37:42.472Z,99429.91
2022-10-05T23:40:14.664Z,99422.75
2022-10-05T23:42:42.974Z,99427.19
2022-10-05T23:45:12.845Z,99432.41
2022-10-05T23:47:41.602Z,99436.34
2022-10-05T23:50:10.605Z,99438.53
2022-10-05T23:52:38.622Z,99439.78
2022-10-05T23:55:07.397Z,99444.22
2022-10-05T23:57:36.624Z,99441.44
